createdAt,value
2019-03-23T00:04:45.842Z,188.03
2019-03-23T00:07:13.443Z,193.90
2019-03-23T00:09:41.019Z,203.53
2019-03-23T00:12:08.705Z,185.17
2019-03-23T00:14:36.284Z,187.37
2019-03-23T00:17:03.868Z,205.17
2019-03-23T00:19:31.476Z,215.60
2019-03-23T00:21:59.087Z,231.10
2019-03-23T00:24:26.684Z,230.50
2019-03-23T00:26:54.272Z,252.40
2019-03-23T00:29:21.894Z,225.13
2019-03-23T00:31:49.502Z,226.20
2019-03-23T00:34:17.201Z,235.60
2019-03-23T00:37:01.236Z,232.53
2019-03-23T00:39:28.814Z,237.73
2019-03-23T00:41:56.454Z,287.20
2019-03-23T00:44:24.100Z,285.47
2019-03-23T00:46:51.774Z,294.00
2019-03-23T00:49:19.347Z,331.93
2019-03-23T00:51:46.950Z,375.43
2019-03-23T00:54:14.545Z,375.33
2019-03-23T00:56:42.123Z,419.37
2019-03-23T01:00:08.037Z,397.20
2019-03-23T01:02:35.818Z,377.73
2019-03-23T01:05:04.242Z,430.83
2019-03-23T01:07:31.849Z,427.93
2019-03-23T01:09:59.509Z,428.10
2019-03-23T01:12:27.079Z,433.37
2019-03-23T01:14:54.705Z,418.07
2019-03-23T01:17:22.282Z,432.73
2019-03-23T01:19:49.855Z,428.87
2019-03-23T01:22:17.498Z,421.20
2019-03-23T01:24:46.716Z,411.43
2019-03-23T01:27:14.551Z,409.03
2019-03-23T01:29:42.165Z,416.47
2019-03-23T01:32:09.813Z,424.40
2019-03-23T01:34:37.411Z,410.67
2019-03-23T01:37:05.012Z,416.33
2019-03-23T01:39:32.633Z,402.47
2019-03-23T01:42:03.337Z,411.43
2019-03-23T01:44:31.034Z,414.53
2019-03-23T01:47:18.026Z,402.43
2019-03-23T01:49:45.604Z,381.27
2019-03-23T01:52:13.172Z,401.50
2019-03-23T01:54:40.848Z,381.13
2019-03-23T01:57:08.433Z,368.23
2019-03-23T01:59:36.159Z,377.57
2019-03-23T02:02:03.781Z,386.60
2019-03-23T02:04:31.474Z,347.17
2019-03-23T02:06:59.058Z,353.40
2019-03-23T02:09:26.696Z,356.53
2019-03-23T02:11:54.287Z,329.40
2019-03-23T02:14:21.856Z,315.30
2019-03-23T02:16:49.463Z,329.17
2019-03-23T02:19:17.137Z,331.47
2019-03-23T02:21:44.712Z,329.30
2019-03-23T02:24:12.352Z,333.80
2019-03-23T02:26:39.937Z,325.73
2019-03-23T02:29:07.522Z,316.00
2019-03-23T02:31:35.141Z,292.97
2019-03-23T02:34:02.757Z,332.27
2019-03-23T02:36:30.339Z,298.20
2019-03-23T02:38:57.970Z,324.10
2019-03-23T02:41:25.567Z,294.37
2019-03-23T02:43:53.152Z,308.33
2019-03-23T02:46:20.780Z,290.87
2019-03-23T02:48:48.354Z,305.67
2019-03-23T02:51:15.933Z,309.07
2019-03-23T02:53:43.560Z,296.37
2019-03-23T02:56:11.242Z,300.53
2019-03-23T02:58:38.830Z,299.60
2019-03-23T03:01:06.434Z,303.67
2019-03-23T03:03:34.082Z,286.37
2019-03-23T03:06:01.677Z,305.10
2019-03-23T03:08:29.266Z,283.30
2019-03-23T03:10:57.014Z,256.97
2019-03-23T03:13:24.627Z,263.87
2019-03-23T03:15:52.214Z,272.93
2019-03-23T03:18:19.810Z,271.60
2019-03-23T03:20:47.432Z,236.07
2019-03-23T03:23:15.033Z,248.03
2019-03-23T03:25:42.611Z,264.47
2019-03-23T03:28:10.234Z,256.77
2019-03-23T03:30:37.866Z,234.47
2019-03-23T03:33:23.396Z,237.47
2019-03-23T03:35:50.995Z,220.00
2019-03-23T03:38:19.709Z,201.83
2019-03-23T03:40:47.463Z,183.17
2019-03-23T03:43:15.042Z,189.70
2019-03-23T03:45:42.638Z,175.57
2019-03-23T03:48:13.616Z,179.03
2019-03-23T03:50:41.204Z,167.17
2019-03-23T03:53:08.782Z,178.77
2019-03-23T03:55:36.611Z,169.27
2019-03-23T03:58:04.228Z,169.33
2019-03-23T04:00:31.811Z,161.23
2019-03-23T04:02:59.426Z,163.57
2019-03-23T04:05:27.157Z,171.87
2019-03-23T04:07:54.743Z,159.63
2019-03-23T04:10:22.339Z,153.77
2019-03-23T04:12:49.973Z,165.20
2019-03-23T04:15:17.551Z,156.77
2019-03-23T04:17:45.127Z,161.97
2019-03-23T04:20:12.995Z,158.73
2019-03-23T04:22:43.547Z,162.77
2019-03-23T04:25:11.637Z,167.90
2019-03-23T04:27:39.253Z,155.77
2019-03-23T04:30:09.023Z,168.80
2019-03-23T04:32:36.663Z,147.80
2019-03-23T04:35:05.292Z,163.50
2019-03-23T04:37:32.871Z,165.47
2019-03-23T04:40:00.541Z,152.10
2019-03-23T04:42:28.179Z,157.43
2019-03-23T04:44:55.756Z,158.77
2019-03-23T04:47:23.372Z,150.20
2019-03-23T04:49:51.093Z,150.03
2019-03-23T04:52:18.668Z,163.87
2019-03-23T04:54:46.244Z,162.73
2019-03-23T04:57:13.858Z,143.47
2019-03-23T04:59:41.609Z,160.87
2019-03-23T05:02:14.631Z,157.23
2019-03-23T05:04:42.259Z,153.23
2019-03-23T05:07:09.820Z,153.57
2019-03-23T05:09:37.683Z,154.83
2019-03-23T05:12:05.328Z,136.27
2019-03-23T05:14:32.878Z,151.77
2019-03-23T05:17:00.464Z,145.23
2019-03-23T05:19:28.105Z,144.27
2019-03-23T05:21:57.760Z,144.73
2019-03-23T05:24:25.366Z,133.43
2019-03-23T05:26:53.006Z,137.93
2019-03-23T05:29:20.577Z,133.33
2019-03-23T05:31:48.160Z,143.97
2019-03-23T05:34:15.785Z,129.83
2019-03-23T05:36:43.364Z,121.27
2019-03-23T05:39:10.941Z,128.30
2019-03-23T05:41:38.564Z,126.73
2019-03-23T05:44:06.151Z,128.63
2019-03-23T05:46:34.633Z,123.17
2019-03-23T05:49:02.394Z,124.50
2019-03-23T05:51:29.988Z,125.63
2019-03-23T05:53:57.581Z,120.17
2019-03-23T05:56:25.199Z,111.67
2019-03-23T05:58:52.778Z,114.00
2019-03-23T06:01:20.565Z,114.57
2019-03-23T06:03:48.184Z,114.30
2019-03-23T06:06:15.873Z,115.17
2019-03-23T06:08:43.472Z,111.33
2019-03-23T06:11:11.214Z,119.60
2019-03-23T06:13:38.786Z,115.20
2019-03-23T06:16:06.409Z,120.17
2019-03-23T06:18:34.023Z,117.47
2019-03-23T06:21:01.614Z,117.10
2019-03-23T06:23:29.198Z,120.83
2019-03-23T06:25:56.815Z,125.00
2019-03-23T06:28:24.381Z,120.27
2019-03-23T06:30:53.855Z,116.87
2019-03-23T06:33:21.493Z,123.30
2019-03-23T06:35:49.099Z,118.83
2019-03-23T06:38:16.722Z,124.27
2019-03-23T06:40:44.316Z,121.90
2019-03-23T06:43:11.885Z,112.40
2019-03-23T06:45:39.514Z,121.50
2019-03-23T06:48:07.086Z,117.90
2019-03-23T06:50:34.916Z,113.80
2019-03-23T06:53:02.557Z,125.90
2019-03-23T06:55:30.250Z,114.47
2019-03-23T06:57:57.852Z,116.97
2019-03-23T07:00:29.709Z,109.13
2019-03-23T07:02:57.320Z,107.73
2019-03-23T07:05:25.005Z,110.73
2019-03-23T07:07:52.644Z,115.50
2019-03-23T07:10:20.268Z,109.70
2019-03-23T07:12:47.908Z,111.20
2019-03-23T07:15:20.264Z,112.07
2019-03-23T07:17:45.069Z,114.00
2019-03-23T07:20:13.668Z,114.90
2019-03-23T07:22:41.455Z,118.33
2019-03-23T07:25:10.216Z,109.40
2019-03-23T07:27:37.874Z,105.87
2019-03-23T07:30:08.031Z,114.30
2019-03-23T07:32:35.633Z,100.53
2019-03-23T07:35:03.492Z,106.03
2019-03-23T07:37:31.104Z,103.33
2019-03-23T07:39:58.687Z,98.83
2019-03-23T07:42:26.312Z,101.83
2019-03-23T07:44:53.893Z,106.10
2019-03-23T07:47:21.684Z,97.63
2019-03-23T07:49:49.557Z,105.10
2019-03-23T07:52:17.195Z,94.53
2019-03-23T07:54:44.840Z,91.80
2019-03-23T07:57:12.526Z,96.10
2019-03-23T07:59:40.117Z,95.43
2019-03-23T08:02:07.758Z,88.00
2019-03-23T08:04:35.370Z,96.00
2019-03-23T08:07:03.067Z,96.53
2019-03-23T08:09:37.564Z,93.13
2019-03-23T08:12:00.199Z,92.23
2019-03-23T08:14:27.801Z,96.53
2019-03-23T08:16:55.389Z,90.77
2019-03-23T08:19:23.008Z,92.37
2019-03-23T08:21:50.682Z,93.73
2019-03-23T08:24:18.296Z,91.77
2019-03-23T08:26:45.882Z,87.30
2019-03-23T08:29:13.533Z,100.07
2019-03-23T08:31:43.926Z,90.70
2019-03-23T08:34:11.562Z,89.30
2019-03-23T08:36:39.191Z,96.77
2019-03-23T08:39:07.259Z,97.87
2019-03-23T08:41:34.874Z,94.40
2019-03-23T08:44:02.664Z,93.10
2019-03-23T08:46:30.245Z,93.70
2019-03-23T08:48:57.818Z,103.97
2019-03-23T08:51:43.588Z,93.93
2019-03-23T08:54:11.223Z,84.63
2019-03-23T08:56:38.817Z,91.73
2019-03-23T08:59:06.450Z,98.00
2019-03-23T09:01:34.039Z,91.27
2019-03-23T09:04:02.058Z,92.87
2019-03-23T09:06:29.706Z,88.53
2019-03-23T09:08:57.275Z,93.67
2019-03-23T09:11:49.392Z,88.70
2019-03-23T09:14:17.035Z,94.83
2019-03-23T09:16:44.661Z,92.73
2019-03-23T09:19:12.252Z,101.00
2019-03-23T09:21:39.811Z,90.30
2019-03-23T09:24:07.561Z,88.97
2019-03-23T09:26:35.154Z,97.60
2019-03-23T09:29:02.745Z,90.37
2019-03-23T09:31:30.451Z,92.33
2019-03-23T09:33:58.285Z,90.50
2019-03-23T09:36:25.885Z,85.30
2019-03-23T09:38:53.459Z,97.10
2019-03-23T09:41:21.075Z,96.03
2019-03-23T09:43:48.769Z,87.67
2019-03-23T09:46:16.453Z,83.47
2019-03-23T09:48:44.110Z,87.80
2019-03-23T09:51:11.843Z,86.23
2019-03-23T09:53:39.435Z,84.33
2019-03-23T09:56:07.058Z,91.03
2019-03-23T09:58:46.814Z,89.17
2019-03-23T10:01:14.452Z,82.50
2019-03-23T10:03:42.976Z,94.50
2019-03-23T10:06:10.637Z,88.77
2019-03-23T10:08:38.297Z,95.27
2019-03-23T10:11:05.954Z,86.43
2019-03-23T10:13:33.558Z,91.47
2019-03-23T10:16:01.227Z,93.47
2019-03-23T10:18:28.810Z,96.20
2019-03-23T10:20:56.411Z,96.00
2019-03-23T10:23:24.050Z,91.10
2019-03-23T10:25:52.753Z,100.77
2019-03-23T10:28:20.478Z,99.50
2019-03-23T10:30:48.070Z,100.43
2019-03-23T10:33:15.703Z,101.80
2019-03-23T10:38:50.952Z,102.80
2019-03-23T10:41:18.523Z,97.53
2019-03-23T10:43:46.160Z,100.83
2019-03-23T10:46:13.771Z,102.03
2019-03-23T10:48:41.361Z,117.00
2019-03-23T10:51:09.068Z,108.47
2019-03-23T10:53:36.716Z,102.77
2019-03-23T10:56:05.306Z,104.87
2019-03-23T10:58:32.945Z,103.03
2019-03-23T11:01:00.525Z,100.27
2019-03-23T11:03:28.112Z,97.57
2019-03-23T11:05:55.750Z,99.77
2019-03-23T11:08:23.349Z,97.23
2019-03-23T11:10:51.071Z,97.03
2019-03-23T11:13:18.887Z,99.90
2019-03-23T11:15:46.478Z,103.80
2019-03-23T11:18:14.180Z,104.93
2019-03-23T11:20:41.905Z,95.83
2019-03-23T11:23:09.593Z,109.30
2019-03-23T11:25:37.212Z,103.83
2019-03-23T11:28:04.857Z,106.47
2019-03-23T11:30:32.442Z,97.67
2019-03-23T11:33:00.110Z,99.37
2019-03-23T11:35:27.775Z,97.60
2019-03-23T11:37:55.863Z,101.57
2019-03-23T11:40:23.763Z,95.07
2019-03-23T11:42:51.470Z,110.83
2019-03-23T11:45:19.107Z,106.53
2019-03-23T11:47:46.731Z,104.73
2019-03-23T11:50:14.317Z,101.23
2019-03-23T11:52:41.911Z,100.07
2019-03-23T11:55:09.996Z,106.27
2019-03-23T11:57:37.585Z,100.67
2019-03-23T12:00:06.033Z,100.57
2019-03-23T12:02:33.658Z,106.33
2019-03-23T12:05:01.305Z,109.23
2019-03-23T12:07:28.879Z,104.63
2019-03-23T12:09:56.481Z,100.30
2019-03-23T12:12:24.149Z,103.33
2019-03-23T12:14:52.455Z,101.63
2019-03-23T12:17:20.176Z,108.07
2019-03-23T12:19:47.771Z,107.10
2019-03-23T12:22:15.376Z,100.77
2019-03-23T12:24:43.005Z,106.93
2019-03-23T12:27:10.619Z,105.00
2019-03-23T12:29:38.295Z,108.27
2019-03-23T12:32:05.963Z,103.87
2019-03-23T12:34:33.546Z,99.93
2019-03-23T12:37:01.290Z,107.40
2019-03-23T12:39:29.045Z,98.97
2019-03-23T12:41:56.650Z,111.37
2019-03-23T12:44:24.241Z,100.70
2019-03-23T12:46:51.899Z,96.47
2019-03-23T12:49:19.489Z,105.37
2019-03-23T12:51:47.216Z,104.33
2019-03-23T12:54:14.809Z,103.23
2019-03-23T12:56:47.416Z,104.27
2019-03-23T12:59:15.020Z,107.97
2019-03-23T13:01:42.596Z,97.33
2019-03-23T13:04:10.199Z,103.10
2019-03-23T13:06:37.789Z,91.20
2019-03-23T13:09:07.020Z,97.37
2019-03-23T13:11:35.497Z,96.97
2019-03-23T13:14:03.820Z,103.17
2019-03-23T13:16:31.546Z,92.30
2019-03-23T13:18:59.160Z,98.27
2019-03-23T13:21:26.728Z,103.80
2019-03-23T13:23:54.374Z,103.40
2019-03-23T13:26:21.958Z,100.30
2019-03-23T13:28:49.527Z,95.37
2019-03-23T13:31:17.200Z,98.87
2019-03-23T13:33:44.851Z,94.30
2019-03-23T13:36:12.560Z,90.40
2019-03-23T13:38:40.152Z,91.13
2019-03-23T13:41:07.795Z,95.70
2019-03-23T13:43:35.458Z,93.10
2019-03-23T13:46:03.037Z,94.23
2019-03-23T13:48:30.910Z,87.07
2019-03-23T13:50:58.498Z,90.70
2019-03-23T13:53:26.234Z,89.53
2019-03-23T13:55:53.944Z,99.87
2019-03-23T13:58:21.496Z,97.90
2019-03-23T14:00:52.047Z,87.33
2019-03-23T14:03:19.697Z,91.23
2019-03-23T14:05:47.281Z,93.27
2019-03-23T14:08:14.899Z,97.57
2019-03-23T14:10:42.544Z,90.57
2019-03-23T14:13:11.971Z,87.20
2019-03-23T14:15:39.749Z,83.93
2019-03-23T14:18:07.434Z,91.80
2019-03-23T14:20:35.047Z,85.27
2019-03-23T14:23:03.244Z,88.00
2019-03-23T14:25:30.868Z,83.40
2019-03-23T14:27:58.476Z,90.37
2019-03-23T14:30:26.075Z,82.93
2019-03-23T14:32:53.824Z,84.37
2019-03-23T14:35:21.443Z,89.10
2019-03-23T14:37:49.239Z,89.30
2019-03-23T14:40:16.942Z,76.03
2019-03-23T14:42:44.537Z,85.93
2019-03-23T14:45:12.146Z,86.73
2019-03-23T14:47:39.776Z,89.17
2019-03-23T14:50:07.560Z,90.73
2019-03-23T14:52:35.240Z,91.63
2019-03-23T14:55:02.837Z,86.63
2019-03-23T14:57:30.421Z,86.47
2019-03-23T14:59:58.049Z,84.43
2019-03-23T15:02:25.642Z,78.27
2019-03-23T15:04:53.345Z,81.37
2019-03-23T15:07:20.977Z,86.17
2019-03-23T15:09:48.568Z,82.13
2019-03-23T15:12:16.231Z,82.43
2019-03-23T15:14:43.835Z,85.27
2019-03-23T15:17:11.435Z,89.00
2019-03-23T15:19:42.290Z,85.00
2019-03-23T15:22:29.113Z,86.77
2019-03-23T15:25:51.738Z,85.97
2019-03-23T15:28:19.423Z,87.50
2019-03-23T15:30:47.000Z,90.37
2019-03-23T15:33:14.651Z,88.77
2019-03-23T15:35:42.307Z,86.90
2019-03-23T15:38:10.074Z,83.63
2019-03-23T15:40:37.711Z,88.03
2019-03-23T15:43:05.400Z,88.70
2019-03-23T15:45:32.993Z,92.57
2019-03-23T15:48:01.702Z,94.27
2019-03-23T15:50:29.289Z,90.33
2019-03-23T15:52:56.936Z,93.67
2019-03-23T15:55:28.087Z,95.07
2019-03-23T15:57:55.696Z,97.87
2019-03-23T16:00:23.285Z,98.13
2019-03-23T16:02:51.155Z,98.13
2019-03-23T16:05:18.865Z,96.03
2019-03-23T16:07:46.505Z,105.67
2019-03-23T16:10:14.147Z,101.03
2019-03-23T16:12:41.828Z,108.67
2019-03-23T16:15:10.322Z,107.83
2019-03-23T16:17:37.947Z,114.00
2019-03-23T16:20:07.943Z,113.20
2019-03-23T16:22:36.586Z,109.63
2019-03-23T16:25:04.832Z,126.70
2019-03-23T16:27:32.564Z,128.40
2019-03-23T16:30:00.245Z,133.97
2019-03-23T16:32:28.016Z,125.60
2019-03-23T16:34:55.635Z,138.00
2019-03-23T16:37:23.513Z,136.00
2019-03-23T16:40:06.431Z,134.90
2019-03-23T16:42:44.588Z,139.83
2019-03-23T16:45:06.643Z,134.67
2019-03-23T16:47:34.331Z,142.60
2019-03-23T16:50:01.926Z,129.13
2019-03-23T16:52:29.730Z,133.97
2019-03-23T16:54:57.424Z,130.83
2019-03-23T16:57:26.253Z,131.30
2019-03-23T16:59:54.011Z,133.80
2019-03-23T17:02:26.831Z,133.87
2019-03-23T17:04:54.416Z,124.13
2019-03-23T17:07:22.055Z,134.60
2019-03-23T17:09:49.641Z,135.23
2019-03-23T17:12:17.228Z,139.73
2019-03-23T17:14:45.825Z,135.67
2019-03-23T17:17:13.447Z,132.77
2019-03-23T17:19:41.080Z,135.30
2019-03-23T17:22:08.719Z,125.80
2019-03-23T17:24:36.426Z,130.00
2019-03-23T17:27:04.102Z,131.20
2019-03-23T17:29:31.702Z,138.70
2019-03-23T17:31:59.292Z,133.50
2019-03-23T17:34:26.955Z,138.30
2019-03-23T17:36:54.676Z,128.50
2019-03-23T17:39:22.348Z,125.13
2019-03-23T17:41:49.993Z,128.83
2019-03-23T17:44:17.746Z,122.33
2019-03-23T17:46:45.349Z,122.60
2019-03-23T17:49:12.925Z,128.70
2019-03-23T17:51:40.655Z,119.07
2019-03-23T17:54:08.254Z,118.33
2019-03-23T17:56:35.946Z,120.80
2019-03-23T17:59:03.581Z,115.93
2019-03-23T18:01:31.169Z,114.30
2019-03-23T18:03:58.776Z,114.37
2019-03-23T18:06:26.419Z,109.50
2019-03-23T18:08:55.654Z,109.83
2019-03-23T18:11:23.260Z,95.03
2019-03-23T18:14:09.214Z,96.63
2019-03-23T18:16:37.013Z,95.80
2019-03-23T18:19:04.743Z,88.93
2019-03-23T18:21:32.344Z,84.03
2019-03-23T18:23:59.976Z,89.63
2019-03-23T18:26:27.576Z,69.43
2019-03-23T18:28:55.208Z,74.23
2019-03-23T18:31:22.781Z,65.40
2019-03-23T18:33:50.385Z,68.03
2019-03-23T18:36:18.276Z,63.30
2019-03-23T18:38:45.983Z,62.37
2019-03-23T18:41:13.586Z,58.20
2019-03-23T18:43:41.226Z,57.07
2019-03-23T18:46:08.946Z,63.83
2019-03-23T18:48:43.938Z,60.00
2019-03-23T18:51:11.634Z,59.87
2019-03-23T18:53:39.262Z,63.07
2019-03-23T18:56:06.938Z,60.73
2019-03-23T18:58:34.547Z,67.30
2019-03-23T19:01:02.158Z,63.10
2019-03-23T19:03:29.857Z,68.97
2019-03-23T19:05:57.571Z,61.67
2019-03-23T19:08:26.291Z,69.03
2019-03-23T19:10:53.998Z,57.43
2019-03-23T19:13:21.973Z,70.90
2019-03-23T19:15:49.605Z,69.43
2019-03-23T19:18:17.319Z,70.60
2019-03-23T19:20:44.980Z,65.93
2019-03-23T19:23:12.609Z,66.10
2019-03-23T19:25:41.302Z,67.13
2019-03-23T19:28:09.028Z,60.77
2019-03-23T19:30:36.670Z,61.27
2019-03-23T19:33:40.355Z,66.33
2019-03-23T19:36:08.311Z,55.30
2019-03-23T19:38:36.135Z,58.67
2019-03-23T19:41:05.629Z,55.97
2019-03-23T19:43:33.372Z,68.73
2019-03-23T19:46:01.050Z,65.10
2019-03-23T19:48:28.902Z,60.13
2019-03-23T19:50:56.964Z,61.00
2019-03-23T19:53:25.147Z,51.93
2019-03-23T19:55:53.110Z,60.17
2019-03-23T19:58:20.959Z,62.03
2019-03-23T20:00:48.718Z,58.73
2019-03-23T20:03:19.077Z,54.97
2019-03-23T20:05:46.592Z,56.20
2019-03-23T20:08:14.388Z,49.33
2019-03-23T20:10:42.131Z,50.97
2019-03-23T20:13:09.792Z,50.90
2019-03-23T20:15:37.418Z,48.93
2019-03-23T20:18:05.314Z,60.73
2019-03-23T20:20:32.989Z,55.53
2019-03-23T20:23:00.733Z,50.63
2019-03-23T20:25:28.354Z,44.93
2019-03-23T20:27:56.258Z,65.57
2019-03-23T20:30:24.469Z,51.20
2019-03-23T20:32:52.138Z,54.87
2019-03-23T20:35:20.099Z,53.50
2019-03-23T20:37:47.755Z,49.73
2019-03-23T20:40:16.047Z,52.80
2019-03-23T20:42:44.430Z,47.87
2019-03-23T20:45:14.059Z,55.80
2019-03-23T20:47:42.452Z,45.90
2019-03-23T20:50:10.592Z,44.50
2019-03-23T20:52:39.157Z,37.93
2019-03-23T20:55:13.674Z,40.77
2019-03-23T20:57:41.578Z,36.87
2019-03-23T21:00:09.192Z,37.73
2019-03-23T21:02:36.941Z,32.60
2019-03-23T21:05:04.919Z,36.70
2019-03-23T21:08:18.566Z,26.57
2019-03-23T21:11:50.672Z,33.90
2019-03-23T21:14:20.443Z,31.60
2019-03-23T21:16:48.312Z,29.70
2019-03-23T21:19:15.959Z,29.10
2019-03-23T21:21:43.593Z,26.17
2019-03-23T21:24:11.948Z,30.27
2019-03-23T21:26:39.821Z,30.90
2019-03-23T21:29:07.481Z,31.00
2019-03-23T21:31:38.334Z,34.07
2019-03-23T21:34:06.100Z,29.87
2019-03-23T21:36:33.959Z,32.23
2019-03-23T21:39:01.654Z,32.60
2019-03-23T21:41:29.477Z,31.97
2019-03-23T21:43:57.489Z,36.17
2019-03-23T21:46:27.158Z,32.03
2019-03-23T21:48:54.827Z,36.37
2019-03-23T21:51:22.492Z,29.17
2019-03-23T21:53:50.156Z,38.67
2019-03-23T21:56:17.871Z,30.30
2019-03-23T21:58:45.722Z,32.20
2019-03-23T22:01:13.634Z,28.87
2019-03-23T22:03:41.253Z,35.93
2019-03-23T22:06:08.947Z,39.87
2019-03-23T22:08:36.767Z,29.87
2019-03-23T22:11:04.419Z,30.97
2019-03-23T22:13:32.231Z,32.33
2019-03-23T22:15:59.881Z,27.73
2019-03-23T22:18:28.666Z,27.57
2019-03-23T22:20:56.478Z,33.07
2019-03-23T22:23:24.146Z,27.97
2019-03-23T22:25:52.050Z,31.90
2019-03-23T22:28:19.873Z,30.03
2019-03-23T22:30:47.471Z,31.73
2019-03-23T22:33:15.160Z,32.20
2019-03-23T22:35:42.899Z,34.00
2019-03-23T22:38:10.662Z,29.07
2019-03-23T22:40:38.417Z,31.20
2019-03-23T22:43:06.151Z,28.90
2019-03-23T22:45:35.725Z,30.20
2019-03-23T22:48:03.346Z,27.67
2019-03-23T22:50:31.607Z,26.07
2019-03-23T22:53:17.297Z,28.30
2019-03-23T22:55:45.167Z,26.43
2019-03-23T22:58:12.902Z,29.33
2019-03-23T23:00:44.444Z,26.03
2019-03-23T23:03:19.023Z,28.70
2019-03-23T23:05:46.837Z,28.80
2019-03-23T23:08:14.556Z,30.20
2019-03-23T23:10:43.160Z,27.87
2019-03-23T23:13:10.775Z,31.50
2019-03-23T23:15:38.857Z,35.80
2019-03-23T23:18:06.689Z,31.50
2019-03-23T23:20:34.367Z,33.87
2019-03-23T23:23:02.078Z,30.40
2019-03-23T23:25:29.751Z,24.10
2019-03-23T23:27:57.459Z,30.90
2019-03-23T23:30:26.241Z,27.80
2019-03-23T23:33:48.840Z,30.07
2019-03-23T23:36:16.477Z,26.87
2019-03-23T23:38:44.408Z,29.00
2019-03-23T23:41:12.177Z,31.33
2019-03-23T23:43:39.983Z,32.57
2019-03-23T23:46:07.648Z,26.73
2019-03-23T23:48:35.282Z,25.63
2019-03-23T23:51:03.184Z,30.60
2019-03-23T23:53:30.800Z,33.53
2019-03-23T23:55:58.414Z,27.17
2019-03-23T23:58:26.156Z,32.40
